createdAt,value
2023-01-31T00:00:28.618Z,81
2023-01-31T00:01:44.808Z,80.8
2023-01-31T00:03:00.753Z,80.8
2023-01-31T00:04:13.000Z,81
2023-01-31T00:05:33.392Z,80.9
2023-01-31T00:06:48.356Z,80.6
2023-01-31T00:08:01.000Z,80.7
2023-01-31T00:09:20.991Z,80.7
2023-01-31T00:10:33.000Z,80.6
2023-01-31T00:11:53.132Z,80.8
2023-01-31T00:13:09.577Z,80.7
2023-01-31T00:14:25.521Z,80.4
2023-01-31T00:15:41.715Z,80.4
2023-01-31T00:16:54.000Z,80.4
2023-01-31T00:18:14.356Z,80
2023-01-31T00:19:26.000Z,80.2
2023-01-31T00:20:41.000Z,80.3
2023-01-31T00:21:59.993Z,80
2023-01-31T00:23:12.000Z,80.4
2023-01-31T00:24:28.000Z,80.4
2023-01-31T00:25:47.352Z,80
2023-01-31T00:27:03.789Z,80.2
2023-01-31T00:28:19.990Z,79.8
2023-01-31T00:29:36.183Z,80.2
2023-01-31T00:30:49.000Z,80.1
2023-01-31T00:32:05.000Z,80
2023-01-31T00:33:24.517Z,79.8
2023-01-31T00:34:37.000Z,79.8
2023-01-31T00:35:57.156Z,79.5
2023-01-31T00:37:13.345Z,79.8
2023-01-31T00:38:29.545Z,79.3
2023-01-31T00:39:41.000Z,79.4
2023-01-31T00:40:57.000Z,79.4
2023-01-31T00:42:16.893Z,79.4
2023-01-31T00:43:33.087Z,79.7
2023-01-31T00:44:49.532Z,79.9
2023-01-31T00:46:05.721Z,79.7
2023-01-31T00:47:21.913Z,79.7
2023-01-31T00:48:33.000Z,79.7
2023-01-31T00:49:52.340Z,79.8
2023-01-31T00:51:08.294Z,79.9
2023-01-31T00:52:21.000Z,79.8
2023-01-31T00:53:39.952Z,79.7
2023-01-31T00:54:54.919Z,79.8
2023-01-31T00:56:11.113Z,79.8
2023-01-31T00:57:24.000Z,79.7
2023-01-31T00:58:43.756Z,79.8
2023-01-31T00:59:59.962Z,80
2023-01-31T01:01:12.000Z,79.9
2023-01-31T01:02:32.333Z,80
2023-01-31T01:03:45.000Z,80
2023-01-31T01:05:01.000Z,80
2023-01-31T01:06:20.915Z,79.8
2023-01-31T01:07:33.000Z,79.7
2023-01-31T01:08:50.000Z,79.6
2023-01-31T01:10:09.246Z,79.5
2023-01-31T01:11:24.707Z,79.6
2023-01-31T01:12:40.650Z,79.5
2023-01-31T01:13:56.844Z,79.6
2023-01-31T01:15:10.000Z,79.5
2023-01-31T01:16:29.477Z,79.5
2023-01-31T01:17:45.671Z,79.5
2023-01-31T01:19:01.621Z,79.5
2023-01-31T01:20:14.000Z,79.5
2023-01-31T01:21:33.036Z,79.5
2023-01-31T01:22:45.000Z,79.4
2023-01-31T01:24:01.000Z,79.6
2023-01-31T01:25:17.000Z,79.3
2023-01-31T01:26:37.074Z,79.1
2023-01-31T01:27:53.023Z,79.4
2023-01-31T01:29:08.503Z,79.5
2023-01-31T01:30:23.454Z,79.5
2023-01-31T01:31:39.896Z,79.8
2023-01-31T01:32:55.844Z,79.8
2023-01-31T01:34:09.000Z,79.9
2023-01-31T01:35:25.000Z,79.8
2023-01-31T01:36:44.670Z,79.9
2023-01-31T01:38:00.620Z,80
2023-01-31T01:39:13.000Z,79.9
2023-01-31T01:40:30.000Z,80
2023-01-31T01:41:49.449Z,80.2
2023-01-31T01:43:02.000Z,80.1
2023-01-31T01:44:21.838Z,80.6
2023-01-31T01:45:37.785Z,80
2023-01-31T01:46:52.995Z,80
2023-01-31T01:48:06.000Z,80.1
2023-01-31T01:49:25.629Z,80.1
2023-01-31T01:50:41.577Z,80.1
2023-01-31T01:51:58.018Z,80.2
2023-01-31T01:53:10.000Z,80.3
2023-01-31T01:54:27.000Z,80.4
2023-01-31T01:55:42.000Z,80.5
2023-01-31T01:57:00.589Z,80.6
2023-01-31T01:58:13.000Z,80.5
2023-01-31T01:59:32.004Z,80.4
2023-01-31T02:00:47.465Z,80.5
2023-01-31T02:02:03.408Z,80
2023-01-31T02:03:19.602Z,80
2023-01-31T02:04:36.042Z,79.8
2023-01-31T02:05:49.000Z,79.7
2023-01-31T02:07:08.183Z,79.8
2023-01-31T02:08:24.377Z,79.7
2023-01-31T02:09:40.813Z,79.5
2023-01-31T02:10:56.765Z,79.5
2023-01-31T02:12:12.959Z,79.5
2023-01-31T02:13:26.000Z,79.7
2023-01-31T02:14:45.591Z,79.5
2023-01-31T02:15:58.000Z,79.4
2023-01-31T02:17:17.735Z,79.3
2023-01-31T02:18:32.944Z,79.1
2023-01-31T02:19:46.000Z,79.3
2023-01-31T02:21:01.000Z,79.2
2023-01-31T02:21:05.335Z,79.3
2023-01-31T02:22:21.528Z,79.4
2023-01-31T02:23:34.000Z,79.3
2023-01-31T02:24:53.916Z,79.1
2023-01-31T02:27:24.347Z,79.3
2023-01-31T02:28:39.816Z,79.4
2023-01-31T02:29:54.778Z,79.3
2023-01-31T02:31:10.972Z,79.3
2023-01-31T02:32:24.000Z,79.2
2023-01-31T02:33:43.360Z,79.2
2023-01-31T02:34:59.554Z,79.1
2023-01-31T02:36:15.748Z,79.1
2023-01-31T02:37:32.193Z,79.1
2023-01-31T02:38:48.391Z,79.2
2023-01-31T02:40:01.000Z,79.2
2023-01-31T02:41:17.000Z,79.2
2023-01-31T02:42:36.718Z,79.2
2023-01-31T02:43:49.000Z,79.2
2023-01-31T02:45:09.107Z,79.2
2023-01-31T02:46:24.317Z,79.2
2023-01-31T02:47:37.000Z,79.3
2023-01-31T02:48:53.000Z,79.2
2023-01-31T02:50:09.000Z,79.2
2023-01-31T02:51:26.000Z,79.1
2023-01-31T02:52:42.000Z,79.1
2023-01-31T02:54:01.482Z,79.2
2023-01-31T02:55:16.952Z,79
2023-01-31T02:56:28.000Z,79
2023-01-31T02:57:45.000Z,78.8
2023-01-31T02:59:03.327Z,79
2023-01-31T03:00:15.000Z,79.4
2023-01-31T03:01:31.000Z,79.2
2023-01-31T03:02:47.000Z,79.1
2023-01-31T03:04:04.000Z,79.1
2023-01-31T03:05:20.000Z,79.2
2023-01-31T03:06:36.000Z,79.4
2023-01-31T03:07:55.946Z,79.7
2023-01-31T03:09:11.895Z,79.8
2023-01-31T03:10:28.331Z,79.7
2023-01-31T03:11:44.283Z,79.7
2023-01-31T03:13:00.477Z,79.4
2023-01-31T03:14:13.000Z,79.3
2023-01-31T03:15:29.000Z,79.5
2023-01-31T03:16:45.000Z,79.5
2023-01-31T03:18:04.510Z,79.3
2023-01-31T03:19:20.708Z,79.3
2023-01-31T03:20:36.656Z,79.2
2023-01-31T03:21:53.100Z,79.4
2023-01-31T03:23:09.045Z,79.1
2023-01-31T03:24:25.239Z,79.3
2023-01-31T03:25:37.000Z,79.2
2023-01-31T03:26:52.000Z,79.1
2023-01-31T03:28:07.000Z,78.9
2023-01-31T03:29:23.000Z,78.6
2023-01-31T03:30:42.541Z,78.9
2023-01-31T03:31:55.000Z,79
2023-01-31T03:33:14.943Z,78.8
2023-01-31T03:34:27.000Z,78.7
2023-01-31T03:35:47.312Z,78.2
2023-01-31T03:37:00.000Z,78.1
2023-01-31T03:38:19.715Z,78.4
2023-01-31T03:39:35.654Z,78.4
2023-01-31T03:40:48.000Z,78.7
2023-01-31T03:42:08.041Z,78.9
2023-01-31T03:43:20.000Z,79.2
2023-01-31T03:43:24.235Z,78.8
2023-01-31T03:44:40.680Z,79
2023-01-31T03:45:55.889Z,79
2023-01-31T03:47:11.833Z,79.3
2023-01-31T03:49:44.221Z,79.1
2023-01-31T03:51:00.658Z,79
2023-01-31T03:52:16.609Z,79.2
2023-01-31T03:53:29.000Z,79.2
2023-01-31T03:54:48.023Z,79
2023-01-31T03:56:03.233Z,79.2
2023-01-31T03:57:19.427Z,79.5
2023-01-31T03:58:34.891Z,79.6
2023-01-31T03:59:46.000Z,79.8
2023-01-31T04:01:06.305Z,79.9
2023-01-31T04:02:19.000Z,79.8
2023-01-31T04:03:35.000Z,79.8
2023-01-31T04:04:51.000Z,79.7
2023-01-31T04:06:07.000Z,79.9
2023-01-31T04:07:27.022Z,80.2
2023-01-31T04:08:43.215Z,80.1
2023-01-31T04:09:59.409Z,80.1
2023-01-31T04:11:12.000Z,80.1
2023-01-31T04:12:28.000Z,80.3
2023-01-31T04:13:45.000Z,80.2
2023-01-31T04:15:01.000Z,80.3
2023-01-31T04:16:19.396Z,80.2
2023-01-31T04:17:32.000Z,80.1
2023-01-31T04:18:48.000Z,80.2
2023-01-31T04:20:04.000Z,80.1
2023-01-31T04:21:23.193Z,80.1
2023-01-31T04:22:39.632Z,80.5
2023-01-31T04:23:52.000Z,80.3
2023-01-31T04:25:10.801Z,80.2
2023-01-31T04:26:26.012Z,80.4
2023-01-31T04:27:41.232Z,80.2
2023-01-31T04:28:56.443Z,80.2
2023-01-31T04:30:09.000Z,80.5
2023-01-31T04:31:25.000Z,81.3
2023-01-31T04:32:45.024Z,81.7
2023-01-31T04:33:58.000Z,81.7
2023-01-31T04:35:14.000Z,81.6
2023-01-31T04:36:30.000Z,81.7
2023-01-31T04:37:46.000Z,81.8
2023-01-31T04:39:05.993Z,81.8
2023-01-31T04:40:19.000Z,81.7
2023-01-31T04:41:38.633Z,82.4
2023-01-31T04:42:51.000Z,82.5
2023-01-31T04:44:10.769Z,82.4
2023-01-31T04:45:22.000Z,82.7
2023-01-31T04:46:42.426Z,82.8
2023-01-31T04:47:55.000Z,82.7
2023-01-31T04:49:14.562Z,82.7
2023-01-31T04:50:27.000Z,83
2023-01-31T04:51:46.950Z,83.3
2023-01-31T04:53:00.000Z,83.7
2023-01-31T04:54:15.000Z,83.5
2023-01-31T04:55:30.000Z,83.4
2023-01-31T04:56:46.000Z,83.2
2023-01-31T04:58:02.000Z,83.5
2023-01-31T04:59:22.404Z,83.7
2023-01-31T05:00:34.000Z,84
2023-01-31T05:01:52.587Z,84.2
2023-01-31T05:03:05.000Z,84.3
2023-01-31T05:04:21.000Z,84.4
2023-01-31T05:05:41.168Z,84.2
2023-01-31T05:06:57.613Z,84
2023-01-31T05:08:10.000Z,83.8
2023-01-31T05:09:29.751Z,84
2023-01-31T05:10:42.000Z,84.4
2023-01-31T05:11:59.000Z,84.3
2023-01-31T05:13:15.000Z,84.3
2023-01-31T05:14:34.527Z,84.4
2023-01-31T05:15:50.721Z,84.5
2023-01-31T05:17:06.914Z,84.3
2023-01-31T05:18:22.125Z,84.4
2023-01-31T05:19:35.000Z,84.4
2023-01-31T05:20:51.000Z,84.4
2023-01-31T05:22:10.706Z,84.4
2023-01-31T05:23:26.900Z,84.4
2023-01-31T05:24:43.094Z,84.6
2023-01-31T05:25:56.000Z,84.6
2023-01-31T05:27:14.755Z,84.5
2023-01-31T05:28:29.961Z,84.6
2023-01-31T05:29:42.000Z,84.5
2023-01-31T05:31:02.107Z,84.7
2023-01-31T05:32:15.000Z,84.7
2023-01-31T05:32:18.301Z,84.5
2023-01-31T05:33:31.000Z,84.5
2023-01-31T05:34:50.689Z,84.8
2023-01-31T05:36:03.000Z,84.7
2023-01-31T05:38:36.000Z,84.4
2023-01-31T05:39:55.465Z,84.5
2023-01-31T05:41:08.000Z,84.6
2023-01-31T05:42:28.094Z,84.8
2023-01-31T05:43:44.292Z,84.7
2023-01-31T05:44:59.257Z,85
2023-01-31T05:46:15.450Z,84.8
2023-01-31T05:47:28.000Z,84.5
2023-01-31T05:47:31.644Z,84.6
2023-01-31T05:48:47.838Z,84.6
2023-01-31T05:50:04.277Z,84.4
2023-01-31T05:51:17.000Z,84.3
2023-01-31T05:53:48.000Z,84.5
2023-01-31T05:55:07.106Z,84
2023-01-31T05:56:19.000Z,84.1
2023-01-31T05:57:37.282Z,83.7
2023-01-31T05:58:50.000Z,83.9
2023-01-31T06:00:05.000Z,84
2023-01-31T06:01:20.000Z,83.8
2023-01-31T06:02:40.348Z,83.5
2023-01-31T06:03:53.000Z,83.3
2023-01-31T06:05:09.000Z,82.8
2023-01-31T06:06:28.682Z,82.7
2023-01-31T06:07:44.876Z,82.4
2023-01-31T06:09:01.070Z,82.2
2023-01-31T06:10:17.264Z,82.5
2023-01-31T06:11:33.458Z,82.4
2023-01-31T06:12:46.000Z,82.3
2023-01-31T06:14:02.000Z,82.2
2023-01-31T06:15:22.041Z,82
2023-01-31T06:16:38.478Z,82
2023-01-31T06:17:53.445Z,82
2023-01-31T06:19:06.000Z,82.1
2023-01-31T06:20:22.000Z,81.9
2023-01-31T06:21:42.027Z,81.9
2023-01-31T06:22:55.000Z,82
2023-01-31T06:24:11.000Z,82.1
2023-01-31T06:25:30.854Z,82
2023-01-31T06:26:45.828Z,81.9
2023-01-31T06:27:58.000Z,81.9
2023-01-31T06:29:14.000Z,82
2023-01-31T06:30:33.672Z,81.9
2023-01-31T06:31:45.000Z,82.2
2023-01-31T06:33:03.857Z,82
2023-01-31T06:34:20.050Z,82.2
2023-01-31T06:35:36.244Z,82.4
2023-01-31T06:36:49.000Z,82.4
2023-01-31T06:38:05.000Z,82.2
2023-01-31T06:38:08.632Z,82.3
2023-01-31T06:39:24.826Z,82.2
2023-01-31T06:40:41.020Z,82.3
2023-01-31T06:41:54.000Z,82.2
2023-01-31T06:44:29.602Z,82.1
2023-01-31T06:45:46.039Z,82.5
2023-01-31T06:46:58.000Z,82.3
2023-01-31T06:48:18.183Z,82.2
2023-01-31T06:49:30.000Z,81.8
2023-01-31T06:50:46.000Z,81.6
2023-01-31T06:52:05.781Z,81.3
2023-01-31T06:53:21.975Z,81.3
2023-01-31T06:54:35.000Z,81.3
2023-01-31T06:55:54.611Z,81.2
2023-01-31T06:57:10.806Z,81.4
2023-01-31T06:58:26.031Z,81.1
2023-01-31T06:59:40.988Z,80.9
2023-01-31T07:00:56.451Z,80.8
2023-01-31T07:02:11.419Z,80.7
2023-01-31T07:03:27.868Z,80.5
2023-01-31T07:04:40.000Z,80.6
2023-01-31T07:06:00.254Z,80.5
2023-01-31T07:07:16.196Z,80.3
2023-01-31T07:08:29.000Z,80.2
2023-01-31T07:09:45.000Z,80.1
2023-01-31T07:11:01.000Z,80
2023-01-31T07:12:17.000Z,79.8
2023-01-31T07:13:37.408Z,79.9
2023-01-31T07:14:50.000Z,80.1
2023-01-31T07:16:09.558Z,79.9
2023-01-31T07:17:25.752Z,80.1
2023-01-31T07:18:41.212Z,80
2023-01-31T07:19:54.000Z,80
2023-01-31T07:21:13.354Z,79.9
2023-01-31T07:22:29.816Z,80
2023-01-31T07:23:42.000Z,79.9
2023-01-31T07:25:01.939Z,79.9
2023-01-31T07:26:18.134Z,79.8
2023-01-31T07:27:33.599Z,79.8
2023-01-31T07:28:48.568Z,79.6
2023-01-31T07:30:00.000Z,79.6
2023-01-31T07:31:16.000Z,79.6
2023-01-31T07:32:32.000Z,79.6
2023-01-31T07:33:51.392Z,79.6
2023-01-31T07:35:04.000Z,79.5
2023-01-31T07:36:24.040Z,79.3
2023-01-31T07:37:40.222Z,79.3
2023-01-31T07:38:56.174Z,79.3
2023-01-31T07:40:12.369Z,79.3
2023-01-31T07:41:28.815Z,79
2023-01-31T07:42:44.761Z,78.9
2023-01-31T07:43:57.000Z,79
2023-01-31T07:45:17.153Z,79
2023-01-31T07:46:30.000Z,78.6
2023-01-31T07:47:45.000Z,78.5
2023-01-31T07:49:01.000Z,78
2023-01-31T07:50:20.952Z,77.9
2023-01-31T07:51:37.148Z,77.6
2023-01-31T07:52:50.000Z,77.8
2023-01-31T07:54:09.540Z,77.6
2023-01-31T07:55:22.000Z,77.4
2023-01-31T07:56:40.958Z,77.5
2023-01-31T07:57:53.000Z,77.3
2023-01-31T07:59:12.365Z,77.3
2023-01-31T08:00:25.000Z,77.2
2023-01-31T08:01:41.000Z,77.1
2023-01-31T08:02:57.000Z,77.1
2023-01-31T08:04:17.425Z,77
2023-01-31T08:05:30.000Z,76.9
2023-01-31T08:06:46.000Z,76.5
2023-01-31T08:08:02.000Z,76.5
2023-01-31T08:08:02.000Z,75.9
2023-01-31T08:09:22.179Z,76.5
2023-01-31T08:10:35.000Z,76.5
2023-01-31T08:11:54.576Z,76.2
2023-01-31T08:14:22.000Z,75.9
2023-01-31T08:15:38.000Z,75.9
2023-01-31T08:16:58.369Z,75.6
2023-01-31T08:18:11.000Z,75.8
2023-01-31T08:19:30.516Z,75.5
2023-01-31T08:20:46.966Z,75.3
2023-01-31T08:22:02.907Z,75.5
2023-01-31T08:23:18.129Z,75.6
2023-01-31T08:24:30.000Z,75.3
2023-01-31T08:25:48.812Z,75.3
2023-01-31T08:27:03.775Z,75.3
2023-01-31T08:28:18.997Z,75.5
2023-01-31T08:29:34.457Z,75.2
2023-01-31T08:30:50.404Z,75
2023-01-31T08:32:06.600Z,75.2
2023-01-31T08:33:22.795Z,74.8
2023-01-31T08:34:38.991Z,75
2023-01-31T08:35:52.000Z,74.8
2023-01-31T08:37:10.646Z,75
2023-01-31T08:38:23.000Z,74.8
2023-01-31T08:39:42.796Z,74.8
2023-01-31T08:40:55.000Z,74.4
2023-01-31T08:42:12.000Z,74.9
2023-01-31T08:43:31.628Z,75
2023-01-31T08:44:44.000Z,74.9
2023-01-31T08:46:00.000Z,74.7
2023-01-31T08:47:16.000Z,74.8
2023-01-31T08:48:33.000Z,74.6
2023-01-31T08:49:52.362Z,74
2023-01-31T08:51:08.800Z,73.8
2023-01-31T08:52:24.753Z,73.8
2023-01-31T08:53:40.205Z,73.6
2023-01-31T08:54:55.187Z,73.9
2023-01-31T08:56:10.398Z,74
2023-01-31T08:57:26.594Z,73.8
2023-01-31T08:58:39.000Z,73.5
2023-01-31T08:59:58.985Z,73.5
2023-01-31T09:01:15.436Z,73.5
2023-01-31T09:02:31.377Z,73.5
2023-01-31T09:03:47.572Z,73.3
2023-01-31T09:05:04.017Z,73.2
2023-01-31T09:06:19.963Z,73
2023-01-31T09:07:33.000Z,72.7
2023-01-31T09:08:49.000Z,73
2023-01-31T09:10:05.000Z,72.7
2023-01-31T09:11:24.986Z,72.5
2023-01-31T09:12:39.958Z,72.5
2023-01-31T09:13:53.000Z,72.1
2023-01-31T09:15:09.000Z,72.3
2023-01-31T09:16:28.544Z,71.8
2023-01-31T09:17:44.740Z,71.9
2023-01-31T09:18:57.000Z,72
2023-01-31T09:20:17.386Z,72.2
2023-01-31T09:21:32.606Z,72.1
2023-01-31T09:22:47.564Z,72.2
2023-01-31T09:23:59.000Z,71.8
2023-01-31T09:25:17.998Z,71.4
2023-01-31T09:26:30.000Z,71.7
2023-01-31T09:27:48.693Z,71.2
2023-01-31T09:29:01.000Z,71.1
2023-01-31T09:30:20.822Z,70.9
2023-01-31T09:31:34.000Z,71.1
2023-01-31T09:32:50.000Z,71.2
2023-01-31T09:34:09.409Z,71.4
2023-01-31T09:35:25.851Z,71.5
2023-01-31T09:36:38.000Z,71.5
2023-01-31T09:37:57.997Z,71.8
2023-01-31T09:39:11.186Z,71.9
2023-01-31T09:40:27.000Z,72.1
2023-01-31T09:41:46.583Z,71.8
2023-01-31T09:43:02.779Z,72
2023-01-31T09:44:14.000Z,71.9
2023-01-31T09:45:34.441Z,71.8
2023-01-31T09:46:50.382Z,71.7
2023-01-31T09:48:03.000Z,71.3
2023-01-31T09:49:19.000Z,71.2
2023-01-31T09:50:38.969Z,71.4
2023-01-31T09:51:52.000Z,71.2
2023-01-31T09:53:07.000Z,71.1
2023-01-31T09:54:25.599Z,71.2
2023-01-31T09:55:37.000Z,71.3
2023-01-31T09:56:53.000Z,71.5
2023-01-31T09:58:12.481Z,71.6
2023-01-31T09:59:25.000Z,72.2
2023-01-31T10:00:41.000Z,72.7
2023-01-31T10:01:57.000Z,72.8
2023-01-31T10:03:14.000Z,72.8
2023-01-31T10:04:30.000Z,72.7
2023-01-31T10:05:49.648Z,72.8
2023-01-31T10:07:02.000Z,72.5
2023-01-31T10:08:22.048Z,72.7
2023-01-31T10:09:37.990Z,72.3
2023-01-31T10:10:51.000Z,72.7
2023-01-31T10:12:07.000Z,72.6
2023-01-31T10:13:25.593Z,72.6
2023-01-31T10:14:38.000Z,72.5
2023-01-31T10:15:57.983Z,72.5
2023-01-31T10:17:14.179Z,72.3
2023-01-31T10:18:30.622Z,72.1
2023-01-31T10:19:43.000Z,71.5
2023-01-31T10:21:03.020Z,71.7
2023-01-31T10:22:18.961Z,71.9
2023-01-31T10:23:32.000Z,72
2023-01-31T10:24:47.000Z,71.9
2023-01-31T10:26:05.591Z,72.2
2023-01-31T10:27:18.000Z,72.2
2023-01-31T10:28:37.982Z,72.1
2023-01-31T10:29:50.000Z,72.3
2023-01-31T10:31:05.000Z,72
2023-01-31T10:32:24.856Z,72.1
2023-01-31T10:33:37.000Z,72.1
2023-01-31T10:34:53.000Z,72.1
2023-01-31T10:36:13.199Z,72
2023-01-31T10:37:26.000Z,72.1
2023-01-31T10:38:42.000Z,72.6
2023-01-31T10:40:02.046Z,72.4
2023-01-31T10:41:17.981Z,72.3
2023-01-31T10:42:34.176Z,72.1
2023-01-31T10:43:50.628Z,71.9
2023-01-31T10:45:42.281Z,72.1
2023-01-31T10:46:22.764Z,72
2023-01-31T10:47:34.000Z,71.9
2023-01-31T10:48:51.000Z,71.9
2023-01-31T10:50:10.612Z,71.7
2023-01-31T10:51:23.000Z,72
2023-01-31T10:52:42.758Z,71.7
2023-01-31T10:53:55.000Z,71.1
2023-01-31T10:55:12.000Z,71.7
2023-01-31T10:56:28.000Z,71.7
2023-01-31T10:57:47.540Z,72.1
2023-01-31T10:59:03.022Z,72.1
2023-01-31T11:00:17.975Z,72.5
2023-01-31T11:01:30.000Z,71.9
2023-01-31T11:02:48.408Z,72.1
2023-01-31T11:04:01.000Z,72.6
2023-01-31T11:05:17.000Z,72.9
2023-01-31T11:06:37.246Z,73.4
2023-01-31T11:07:53.434Z,74.2
2023-01-31T11:09:09.387Z,74
2023-01-31T11:10:25.833Z,74.3
2023-01-31T11:11:42.023Z,74.6
2023-01-31T11:12:54.000Z,73.6
2023-01-31T11:14:14.170Z,73.4
2023-01-31T11:15:27.000Z,73.5
2023-01-31T11:16:46.806Z,73.8
2023-01-31T11:17:59.000Z,73.8
2023-01-31T11:19:17.969Z,73.9
2023-01-31T11:20:31.000Z,73.8
2023-01-31T11:21:50.623Z,73.8
2023-01-31T11:23:03.000Z,73.8
2023-01-31T11:24:22.752Z,73.3
2023-01-31T11:25:35.000Z,73.4
2023-01-31T11:26:55.143Z,73.3
2023-01-31T11:28:49.854Z,73.3
2023-01-31T11:29:22.000Z,72.9
2023-01-31T11:30:38.000Z,72.9
2023-01-31T11:31:57.244Z,73
2023-01-31T11:33:09.000Z,72.8
2023-01-31T11:34:25.000Z,72.7
2023-01-31T11:35:41.000Z,72.2
2023-01-31T11:37:01.137Z,72.1
2023-01-31T11:38:13.000Z,72.1
2023-01-31T11:39:33.433Z,71.8
2023-01-31T11:40:49.379Z,71.3
2023-01-31T11:42:02.000Z,71.8
2023-01-31T11:43:18.000Z,71.4
2023-01-31T11:44:37.967Z,71.7
2023-01-31T11:46:17.558Z,71.3
2023-01-31T11:47:10.358Z,71.3
2023-01-31T11:48:23.000Z,71.1
2023-01-31T11:49:42.027Z,70.6
2023-01-31T11:50:57.961Z,70.7
2023-01-31T11:52:14.400Z,70.6
2023-01-31T11:53:27.000Z,70.2
2023-01-31T11:54:43.000Z,70
2023-01-31T11:55:59.000Z,70.1
2023-01-31T11:57:13.000Z,71
2023-01-31T11:57:19.190Z,70.7
2023-01-31T11:58:31.000Z,70.8
2023-01-31T11:59:46.000Z,70.7
2023-01-31T12:01:04.595Z,70.6
2023-01-31T12:03:40.306Z,71
2023-01-31T12:04:52.441Z,71.5
2023-01-31T12:06:45.687Z,72.1
2023-01-31T12:07:24.835Z,71.6
2023-01-31T12:08:37.000Z,72.2
2023-01-31T12:09:53.000Z,71.5
2023-01-31T12:11:55.445Z,71.7
2023-01-31T12:12:29.376Z,71.1
2023-01-31T12:13:45.571Z,71
2023-01-31T12:14:57.000Z,70.5
2023-01-31T12:15:01.767Z,70.9
2023-01-31T12:17:04.203Z,70.8
2023-01-31T12:17:31.000Z,70.6
2023-01-31T12:18:50.354Z,70.3
2023-01-31T12:21:18.000Z,70
2023-01-31T12:22:38.207Z,70.3
2023-01-31T12:23:54.427Z,71
2023-01-31T12:25:10.601Z,70.7
2023-01-31T12:26:23.000Z,70.4
2023-01-31T12:27:42.024Z,70.6
2023-01-31T12:28:53.000Z,70.5
2023-01-31T12:30:12.205Z,70.4
2023-01-31T12:31:27.416Z,70
2023-01-31T12:32:43.867Z,70.2
2023-01-31T12:33:59.807Z,70.7
2023-01-31T12:35:16.004Z,71.1
2023-01-31T12:36:32.200Z,70.7
2023-01-31T12:37:48.396Z,71.1
2023-01-31T12:39:04.591Z,71
2023-01-31T12:40:17.000Z,70.9
2023-01-31T12:41:33.000Z,70.3
2023-01-31T12:42:53.179Z,70.2
2023-01-31T12:44:06.000Z,69.8
2023-01-31T12:45:25.825Z,69.8
2023-01-31T12:46:38.000Z,69.8
2023-01-31T12:47:53.000Z,69.8
2023-01-31T12:49:13.418Z,70.6
2023-01-31T12:50:29.641Z,70.8
2023-01-31T12:51:44.587Z,70.9
2023-01-31T12:52:56.000Z,71.9
2023-01-31T12:53:00.784Z,70.7
2023-01-31T12:54:13.000Z,70.8
2023-01-31T12:55:33.422Z,71
2023-01-31T12:56:49.370Z,71.6
2023-01-31T12:59:16.000Z,71.7
2023-01-31T13:00:36.247Z,71.8
2023-01-31T13:01:51.223Z,71.7
2023-01-31T13:03:41.431Z,71.7
2023-01-31T13:04:19.000Z,71.5
2023-01-31T13:05:35.000Z,71.5
2023-01-31T13:06:55.022Z,71.7
2023-01-31T13:08:11.219Z,72
2023-01-31T13:09:24.000Z,71.9
2023-01-31T13:10:40.000Z,71.8
2023-01-31T13:11:56.000Z,71.5
2023-01-31T13:13:16.257Z,71.5
2023-01-31T13:14:32.197Z,71.8
2023-01-31T13:15:48.638Z,71.7
2023-01-31T13:17:04.590Z,71.8
2023-01-31T13:18:21.036Z,71.8
2023-01-31T13:19:32.000Z,72
2023-01-31T13:20:52.446Z,72.5
2023-01-31T13:22:45.286Z,72.4
2023-01-31T13:23:24.839Z,72.4
2023-01-31T13:24:37.000Z,72.7
2023-01-31T13:25:57.227Z,73.2
2023-01-31T13:27:10.000Z,73.3
2023-01-31T13:28:25.000Z,73.3
2023-01-31T13:29:40.000Z,73.4
2023-01-31T13:30:58.830Z,73.4
2023-01-31T13:32:11.000Z,73.2
2023-01-31T13:33:27.000Z,73.2
2023-01-31T13:34:46.683Z,73.3
2023-01-31T13:36:02.630Z,73.4
2023-01-31T13:37:18.825Z,73.6
2023-01-31T13:38:31.000Z,73.6
2023-01-31T13:39:51.217Z,74
2023-01-31T13:41:04.000Z,73.7
2023-01-31T13:42:20.000Z,73.6
2023-01-31T13:43:39.805Z,74.1
2023-01-31T13:44:52.000Z,73.8
2023-01-31T13:46:12.197Z,73.6
2023-01-31T13:48:25.158Z,73.9
2023-01-31T13:48:40.000Z,74
2023-01-31T13:49:56.000Z,74.2
2023-01-31T13:51:12.000Z,74.4
2023-01-31T13:52:32.439Z,74.5
2023-01-31T13:53:48.637Z,74.8
2023-01-31T13:55:01.000Z,74.6
2023-01-31T13:56:20.780Z,74.7
2023-01-31T13:57:32.000Z,74.8
2023-01-31T13:58:51.214Z,74.9
2023-01-31T14:00:03.000Z,74.9
2023-01-31T14:01:21.648Z,74.7
2023-01-31T14:02:34.000Z,74.5
2023-01-31T14:03:51.000Z,74.6
2023-01-31T14:05:10.486Z,74.3
2023-01-31T14:06:26.431Z,74.3
2023-01-31T14:07:39.000Z,74.7
2023-01-31T14:08:58.822Z,75
2023-01-31T14:10:11.000Z,75
2023-01-31T14:11:31.213Z,75.1
2023-01-31T14:12:44.000Z,75.4
2023-01-31T14:14:00.000Z,76.1
2023-01-31T14:15:16.000Z,77.1
2023-01-31T14:16:32.000Z,77.5
2023-01-31T14:17:48.000Z,77.7
2023-01-31T14:19:07.403Z,78.2
2023-01-31T14:20:20.000Z,78.1
2023-01-31T14:21:40.055Z,78.5
2023-01-31T14:22:56.237Z,78.8
2023-01-31T14:24:12.437Z,78.8
2023-01-31T14:25:28.628Z,79
2023-01-31T14:26:43.604Z,80.1
2023-01-31T14:27:55.000Z,80.3
2023-01-31T14:29:15.012Z,81.2
2023-01-31T14:31:30.749Z,82.4
2023-01-31T14:31:43.000Z,82.2
2023-01-31T14:33:01.641Z,82.9
2023-01-31T14:34:14.000Z,82.9
2023-01-31T14:35:30.000Z,83
2023-01-31T14:36:50.229Z,82.8
2023-01-31T14:38:03.000Z,82.6
2023-01-31T14:39:22.867Z,82.5
2023-01-31T14:40:35.000Z,82.7
2023-01-31T14:41:55.013Z,82.3
2023-01-31T14:43:11.208Z,82.3
2023-01-31T14:44:23.000Z,81.3
2023-01-31T14:44:24.000Z,81.9
2023-01-31T14:45:40.000Z,81.7
2023-01-31T14:47:00.053Z,81.1
2023-01-31T14:48:16.236Z,81.7
2023-01-31T14:50:44.000Z,81.4
2023-01-31T14:52:03.846Z,81.1
2023-01-31T14:53:16.000Z,81.3
2023-01-31T14:54:32.000Z,80.9
2023-01-31T14:55:49.000Z,80.8
2023-01-31T14:57:08.631Z,80.5
2023-01-31T14:58:20.000Z,80.3
2023-01-31T14:59:35.000Z,79.9
2023-01-31T15:00:55.260Z,80.2
2023-01-31T15:02:10.233Z,80.4
2023-01-31T15:03:22.000Z,80.4
2023-01-31T15:04:38.000Z,80.6
2023-01-31T15:05:58.088Z,80.6
2023-01-31T15:07:14.280Z,80
2023-01-31T15:08:30.471Z,79.8
2023-01-31T15:09:43.000Z,79.6
2023-01-31T15:11:02.618Z,79.4
2023-01-31T15:12:15.000Z,79.1
2023-01-31T15:13:35.011Z,79.1
2023-01-31T15:14:51.208Z,79
2023-01-31T15:16:07.403Z,78.7
2023-01-31T15:17:23.857Z,78.9
2023-01-31T15:18:36.000Z,78.8
2023-01-31T15:19:55.007Z,78.7
2023-01-31T15:21:50.479Z,78.5
2023-01-31T15:22:24.000Z,78.4
2023-01-31T15:23:40.000Z,78.5
2023-01-31T15:24:56.000Z,78.6
2023-01-31T15:26:59.238Z,78.5
2023-01-31T15:27:29.000Z,78.5
2023-01-31T15:28:41.000Z,78.2
2023-01-31T15:28:47.404Z,78.4
2023-01-31T15:29:59.000Z,78.3
2023-01-31T15:31:14.000Z,78.2
2023-01-31T15:32:33.050Z,77.9
2023-01-31T15:35:38.646Z,78.3
2023-01-31T15:36:18.000Z,78.3
2023-01-31T15:37:37.833Z,78.5
2023-01-31T15:38:50.000Z,78.5
2023-01-31T15:40:07.000Z,78
2023-01-31T15:41:26.420Z,78.2
2023-01-31T15:42:39.000Z,78.3
2023-01-31T15:43:55.000Z,78.2
2023-01-31T15:45:15.008Z,78.4
2023-01-31T15:47:30.350Z,78.3
2023-01-31T15:47:47.651Z,78.2
2023-01-31T15:49:00.000Z,78.2
2023-01-31T15:50:18.808Z,78.3
2023-01-31T15:51:31.000Z,78.2
2023-01-31T15:52:48.000Z,78.6
2023-01-31T15:54:07.396Z,78.6
2023-01-31T15:55:23.840Z,78.6
2023-01-31T15:56:36.000Z,78.9
2023-01-31T15:57:55.263Z,79
2023-01-31T15:59:08.000Z,79.5
2023-01-31T16:00:26.677Z,79.8
2023-01-31T16:01:42.624Z,80.3
2023-01-31T16:02:55.000Z,80.7
2023-01-31T16:04:15.015Z,81.1
2023-01-31T16:05:27.000Z,80.9
2023-01-31T16:06:46.423Z,81.4
2023-01-31T16:07:59.000Z,81.8
2023-01-31T16:09:15.000Z,81.9
2023-01-31T16:10:31.000Z,82.3
2023-01-31T16:11:48.000Z,82.4
2023-01-31T16:13:07.404Z,82.5
2023-01-31T16:14:23.600Z,82.9
2023-01-31T16:15:39.796Z,83.2
2023-01-31T16:16:55.992Z,83.4
2023-01-31T16:18:12.438Z,83.9
2023-01-31T16:19:28.384Z,84.2
2023-01-31T16:20:44.581Z,84.6
2023-01-31T16:21:56.000Z,85.1
2023-01-31T16:23:12.000Z,85
2023-01-31T16:24:29.000Z,85.1
2023-01-31T16:25:48.381Z,85.1
2023-01-31T16:27:00.000Z,85.6
2023-01-31T16:28:16.000Z,85.7
2023-01-31T16:29:31.000Z,86
2023-01-31T16:30:48.000Z,86.4
2023-01-31T16:32:07.404Z,87
2023-01-31T16:33:19.000Z,86.8
2023-01-31T16:34:35.000Z,87.3
2023-01-31T16:35:50.000Z,88.1
2023-01-31T16:35:54.036Z,87.2
2023-01-31T16:37:10.231Z,87.2
2023-01-31T16:38:23.000Z,87.5
2023-01-31T16:39:42.879Z,87.9
2023-01-31T16:42:15.014Z,88.5
2023-01-31T16:43:28.000Z,88.6
2023-01-31T16:43:28.000Z,89
2023-01-31T16:44:44.000Z,88.6
2023-01-31T16:46:00.000Z,88.8
2023-01-31T16:47:19.795Z,88.8
2023-01-31T16:50:11.996Z,89.3
2023-01-31T16:51:08.376Z,89.3
2023-01-31T16:52:23.586Z,89.1
2023-01-31T16:53:36.000Z,88.9
2023-01-31T16:54:55.974Z,88.6
2023-01-31T16:56:12.167Z,89
2023-01-31T16:57:25.000Z,89.1
2023-01-31T16:58:41.000Z,89